KCRE/CRE METAR and TAF weather

Enter ICAO airport designator
Station Type Date Time Source
KCRE METAR 2021/01/16 02:53 UTC NOAA

KCRE 160253Z AUTO 27006KT 6SM RA BR BKN040 BKN050 OVC075 11/09 A2970 RMK AO1 SLP057 P0005 60013 T01060094 56013


Station Type Date Time Source
KCRE Decoded METAR 2021/01/16 02:53 UTC NOAA

N. MYRTLE BCH.GRAND STRAND, SC, United States (KCRE) 33-49N 078-43W 10M
Jan 15, 2021 - 09:53 PM EST / 2021.01.16 0253 UTC
Wind: from the W (270 degrees) at 7 MPH (6 KT):0
Visibility: 6 mile(s):0
Sky conditions: overcast
Weather: rain; mist
Precipitation last hour: 0.05 inches
Temperature: 51.1 F (10.6 C)
Dew Point: 48.9 F (9.4 C)
Relative Humidity: 92%
Pressure (altimeter): 29.7 in. Hg (1005 hPa)
Pressure tendency: 0.04 inches (1.3 hPa) lower than three hours ago
ob: KCRE 160253Z AUTO 27006KT 6SM RA BR BKN040 BKN050 OVC075 11/09 A2970 RMK AO1 SLP057 P0005 60013 T01060094 56013
cycle: 3

Station Type Date Time Source
KCRE TAF 2021/01/15 18:22 UTC NOAA

TAF KCRE 151720Z 1518/1618 19014KT P6SM SCT200
FM151900 20015G21KT P6SM VCSH BKN030
FM152200 22015G20KT 5SM SHRA OVC025
FM160500 27011KT P6SM VCSH BKN050
FM161400 25015G25KT P6SM FEW250

Example: see airport list